This is the latest recevied weather packets stored in our database for station/object W4BOD. If no packets are shown the sender has not sent any weather packets the latest 10 day(s).
| Time | Temp. | Humidity | Pressure | Rain* | Wind** | Luminosity | Snow |
|---|---|---|---|---|---|---|---|
| 1777364124 | 17.78° C | 99% | 1014 hPa | 1.27 mm | - | 0 W/m² | - |
| 1777363821 | 17.78° C | 99% | 1014.5 hPa | 1.78 mm | - | 0 W/m² | - |
| 1777363516 | 18.33° C | 99% | 1014.5 hPa | 6.1 mm | - | 0 W/m² | - |
| 1777363214 | 18.33° C | 99% | 1014.2 hPa | 19.81 mm | - | 0 W/m² | - |
| 1777362911 | 18.89° C | 99% | 1014.5 hPa | 33.53 mm | - | 0 W/m² | - |
| 1777362609 | 21.11° C | 97% | 1014.2 hPa | 27.69 mm | - | 0 W/m² | - |
| 1777362307 | 21.67° C | 94% | 1011.9 hPa | 13.72 mm | - | 0 W/m² | - |
| 1777362003 | 22.78° C | 89% | 1012.2 hPa | 3.05 mm | - | 0 W/m² | - |
| 1777361701 | 22.22° C | 90% | 1011.4 hPa | 0 mm | - | 0 W/m² | - |
| 1777361397 | 21.67° C | 93% | 1011.7 hPa | 0 mm | - | 0 W/m² | - |
| 1777361095 | 21.67° C | 93% | 1011.6 hPa | 0 mm | - | 0 W/m² | - |
| 1777360792 | 21.67° C | 93% | 1011.8 hPa | 0 mm | - | 0 W/m² | - |
| 1777360490 | 21.67° C | 94% | 1011.6 hPa | 0 mm | - | 0 W/m² | - |
| 1777360186 | 21.67° C | 93% | 1011.2 hPa | 0 mm | - | 0 W/m² | - |
| 1777359883 | 21.67° C | 94% | 1011.5 hPa | 1.27 mm | - | 0 W/m² | - |
| 1777359580 | 21.67° C | 94% | 1011.3 hPa | 1.27 mm | - | 0 W/m² | - |
| 1777359276 | 21.67° C | 94% | 1011.1 hPa | 0 mm | - | 0 W/m² | - |
| 1777358974 | 21.67° C | 94% | 1011.1 hPa | 0 mm | - | 0 W/m² | - |
| 1777358672 | 21.67° C | 94% | 1011.3 hPa | 0 mm | - | 0 W/m² | - |
| 1777358369 | 21.67° C | 94% | 1011.7 hPa | 0 mm | - | 0 W/m² | - |
| 1777358067 | 21.67° C | 94% | 1011.8 hPa | 0 mm | - | 0 W/m² | - |
| 1777357765 | 21.67° C | 94% | 1011.9 hPa | 0 mm | - | 0 W/m² | - |
| 1777357461 | 22.22° C | 93% | 1012.1 hPa | 0 mm | - | 0 W/m² | - |
| 1777357157 | 22.22° C | 93% | 1012.7 hPa | 0 mm | - | 0 W/m² | - |
| 1777356855 | 22.22° C | 92% | 1012.7 hPa | 1.78 mm | - | 0 W/m² | - |
* Rain latest hour (hover to see other rain measurements)
** Current wind speed in m/s (hover to see current wind gust speed)